Farley, Iowa
Current Conditions -  °F | °C
As of 3:53 AM on Saturday 20 Dec 2014 (Local Time) from KDBQ Reporting Station
Haze Haze  
Wind Chill: 26°   Ceiling: 2200
Heat Index: 26°   Visibility: 5mi
Dew Point: 24°   Wind: 3mph
Humidity: 92%   Direction: 150°SSE
Pressure: 30.23"   Gusts: NA
Location:  42.44°N, 91.01°W
Report Text: KDBQ 200953Z AUTO 15003KT 5SM BR OVC022 M03/M04 A3023 RMK AO2 SLP252 T10331044
Loading
Personal Weather Stations






























Interactive Weather Map New forecast layout! Learn more

10-Day Weather Forecast

Advertisements
Track Severe Weather on mobile